createdAt,value
2023-02-22T00:04:42.850Z,992.10
2023-02-22T00:09:46.969Z,992.10
2023-02-22T00:14:51.198Z,992.01
2023-02-22T00:19:55.344Z,991.97
2023-02-22T00:24:59.460Z,991.95
2023-02-22T00:30:03.648Z,991.91
2023-02-22T00:35:07.796Z,991.79
2023-02-22T00:40:11.989Z,991.78
2023-02-22T00:45:14.237Z,991.82
2023-02-22T00:50:18.423Z,991.75
2023-02-22T00:55:20.696Z,991.65
2023-02-22T01:00:24.831Z,991.67
2023-02-22T01:05:29.013Z,991.46
2023-02-22T01:10:33.170Z,991.46
2023-02-22T01:15:37.326Z,991.44
2023-02-22T01:20:41.495Z,991.42
2023-02-22T01:25:45.708Z,991.24
2023-02-22T01:30:50.073Z,991.05
2023-02-22T01:35:54.050Z,991.03
2023-02-22T01:40:58.114Z,990.94
2023-02-22T01:46:02.434Z,990.88
2023-02-22T01:51:06.460Z,990.73
2023-02-22T01:56:10.660Z,990.66
2023-02-22T02:01:15.001Z,990.56
2023-02-22T02:06:18.928Z,990.59
2023-02-22T02:11:23.086Z,990.61
2023-02-22T02:16:27.301Z,990.56
2023-02-22T02:21:31.429Z,990.63
2023-02-22T02:26:35.591Z,990.69
2023-02-22T02:31:39.847Z,990.70
2023-02-22T02:36:43.948Z,990.65
2023-02-22T02:41:46.265Z,990.63
2023-02-22T02:46:50.438Z,990.59
2023-02-22T02:51:52.640Z,990.53
2023-02-22T02:56:56.811Z,990.51
2023-02-22T03:02:00.986Z,990.47
2023-02-22T03:07:05.135Z,990.46
2023-02-22T03:17:13.436Z,990.41
2023-02-22T03:22:17.647Z,990.28
2023-02-22T03:27:21.782Z,990.26
2023-02-22T03:32:26.012Z,990.18
2023-02-22T03:37:30.101Z,990.19
2023-02-22T03:42:34.285Z,990.10
2023-02-22T03:47:38.447Z,990.00
2023-02-22T03:52:42.612Z,990.02
2023-02-22T03:57:46.792Z,989.98
2023-02-22T04:02:51.053Z,989.93
2023-02-22T04:07:55.080Z,989.90
2023-02-22T04:12:59.222Z,989.87
2023-02-22T04:18:03.422Z,989.91
2023-02-22T04:23:07.582Z,989.93
2023-02-22T04:28:11.740Z,990.00
2023-02-22T04:33:15.886Z,989.98
2023-02-22T04:38:20.070Z,989.90
2023-02-22T04:43:22.337Z,989.90
2023-02-22T04:48:26.547Z,990.01
2023-02-22T04:53:28.784Z,989.99
2023-02-22T04:58:33.050Z,989.97
2023-02-22T05:03:37.107Z,989.86
2023-02-22T05:08:41.255Z,989.91
2023-02-22T05:13:45.448Z,989.88
2023-02-22T05:18:49.598Z,989.77
2023-02-22T05:23:53.780Z,989.84
2023-02-22T05:28:57.941Z,989.77
2023-02-22T05:34:02.073Z,989.74
2023-02-22T05:39:06.266Z,989.80
2023-02-22T05:44:10.406Z,989.73
2023-02-22T05:49:14.566Z,989.66
2023-02-22T05:54:18.731Z,989.65
2023-02-22T05:59:22.898Z,989.68
2023-02-22T06:04:27.052Z,989.69
2023-02-22T06:09:31.261Z,989.59
2023-02-22T06:14:35.448Z,989.76
2023-02-22T06:19:39.589Z,989.73
2023-02-22T06:24:43.712Z,989.70
2023-02-22T06:29:47.900Z,989.44
2023-02-22T06:34:52.035Z,989.12
2023-02-22T06:39:54.330Z,989.18
2023-02-22T06:44:58.491Z,989.26
2023-02-22T06:50:00.863Z,989.18
2023-02-22T06:55:04.944Z,989.20
2023-02-22T07:00:09.096Z,989.18
2023-02-22T07:05:13.290Z,989.24
2023-02-22T07:10:17.411Z,989.28
2023-02-22T07:15:21.615Z,989.21
2023-02-22T07:20:25.744Z,989.15
2023-02-22T07:25:29.929Z,989.14
2023-02-22T07:30:34.336Z,989.06
2023-02-22T07:40:42.417Z,988.77
2023-02-22T07:45:46.653Z,988.71
2023-02-22T07:50:50.730Z,988.70
2023-02-22T07:55:54.912Z,988.64
2023-02-22T08:00:59.099Z,988.56
2023-02-22T08:06:03.282Z,988.43
2023-02-22T08:11:07.434Z,988.34
2023-02-22T08:16:11.580Z,988.26
2023-02-22T08:21:16.141Z,988.13
2023-02-22T08:26:19.872Z,988.03
2023-02-22T08:31:24.117Z,987.94
2023-02-22T08:36:28.199Z,987.84
2023-02-22T08:41:30.509Z,987.60
2023-02-22T08:46:34.631Z,987.43
2023-02-22T08:51:36.928Z,987.26
2023-02-22T09:01:45.361Z,986.78
2023-02-22T09:06:47.537Z,986.58
2023-02-22T09:11:53.198Z,986.44
2023-02-22T09:16:55.862Z,986.34
2023-02-22T09:21:59.986Z,986.24
2023-02-22T09:27:04.194Z,986.03
2023-02-22T09:32:08.599Z,985.84
2023-02-22T09:37:12.508Z,985.71
2023-02-22T09:42:16.658Z,985.55
2023-02-22T09:47:20.833Z,985.41
2023-02-22T09:52:25.016Z,985.28
2023-02-22T09:57:29.157Z,984.96
2023-02-22T10:02:33.324Z,984.60
2023-02-22T10:07:37.462Z,984.29
2023-02-22T10:12:41.604Z,983.91
2023-02-22T10:17:45.814Z,983.62
2023-02-22T10:22:49.975Z,983.58
2023-02-22T10:27:54.102Z,983.75
2023-02-22T10:32:58.308Z,984.12
2023-02-22T10:38:02.426Z,985.86
2023-02-22T10:43:04.716Z,988.01
2023-02-22T10:48:08.940Z,991.05
2023-02-22T10:53:11.117Z,993.39
2023-02-22T10:58:15.307Z,994.70
2023-02-22T11:03:19.430Z,996.77
2023-02-22T11:08:23.650Z,997.36
2023-02-22T11:13:27.812Z,997.50
2023-02-22T11:18:31.952Z,997.73
2023-02-22T11:23:36.118Z,997.75
2023-02-22T11:28:40.254Z,998.20
2023-02-22T11:33:44.409Z,998.25
2023-02-22T11:38:48.574Z,998.61
2023-02-22T11:43:52.724Z,998.37
2023-02-22T11:48:56.921Z,998.34
2023-02-22T11:54:01.074Z,998.17
2023-02-22T11:59:05.204Z,998.18
2023-02-22T12:04:09.531Z,998.33
2023-02-22T12:09:13.522Z,998.14
2023-02-22T12:14:17.750Z,998.18
2023-02-22T12:19:21.834Z,998.10
2023-02-22T12:24:26.004Z,997.94
2023-02-22T12:29:30.190Z,997.96
2023-02-22T12:34:34.381Z,997.88
2023-02-22T12:39:51.816Z,997.95
2023-02-22T12:44:40.770Z,997.89
2023-02-22T12:49:44.928Z,997.83
2023-02-22T12:54:49.140Z,997.82
2023-02-22T12:59:53.246Z,998.02
2023-02-22T13:04:57.735Z,998.36
2023-02-22T13:10:01.612Z,998.75
2023-02-22T13:15:05.742Z,998.69
2023-02-22T13:20:10.023Z,998.52
2023-02-22T13:25:14.058Z,998.45
2023-02-22T13:30:18.237Z,998.16
2023-02-22T13:35:22.364Z,998.24
2023-02-22T13:40:26.507Z,998.13
2023-02-22T13:45:30.682Z,998.10
2023-02-22T13:50:34.859Z,998.28
2023-02-22T13:55:38.988Z,997.99
2023-02-22T14:00:43.176Z,997.96
2023-02-22T14:05:47.491Z,998.18
2023-02-22T14:10:51.502Z,998.07
2023-02-22T14:15:55.680Z,998.06
2023-02-22T14:20:59.806Z,997.87
2023-02-22T14:26:02.051Z,998.22
2023-02-22T14:31:06.401Z,998.03
2023-02-22T14:36:08.514Z,997.84
2023-02-22T14:41:12.650Z,998.07
2023-02-22T14:46:14.960Z,998.12
2023-02-22T14:51:21.871Z,998.10
2023-02-22T14:56:23.279Z,998.17
2023-02-22T15:01:36.707Z,997.97
2023-02-22T15:06:31.607Z,998.20
2023-02-22T15:11:35.728Z,998.23
2023-02-22T15:16:39.911Z,998.15
2023-02-22T15:21:44.066Z,998.00
2023-02-22T15:27:00.862Z,998.04
2023-02-22T15:31:52.447Z,997.98
2023-02-22T15:36:56.550Z,997.84
2023-02-22T15:42:00.724Z,997.93
2023-02-22T15:47:04.843Z,997.75
2023-02-22T15:52:09.025Z,997.76
2023-02-22T15:57:13.254Z,997.64
2023-02-22T16:02:17.368Z,997.45
2023-02-22T16:07:21.517Z,997.32
2023-02-22T16:12:25.712Z,997.21
2023-02-22T16:17:29.882Z,997.24
2023-02-22T16:22:33.977Z,997.04
2023-02-22T16:29:05.315Z,997.07
2023-02-22T16:34:09.412Z,996.87
2023-02-22T16:39:13.570Z,996.80
2023-02-22T16:44:17.784Z,996.65
2023-02-22T16:49:21.878Z,996.59
2023-02-22T16:54:26.073Z,996.41
2023-02-22T16:59:30.209Z,996.18
2023-02-22T17:04:34.358Z,996.02
2023-02-22T17:09:38.549Z,995.99
2023-02-22T17:14:42.715Z,995.80
2023-02-22T17:19:46.861Z,995.71
2023-02-22T17:24:51.037Z,995.72
2023-02-22T17:29:55.190Z,995.67
2023-02-22T17:34:59.352Z,995.56
2023-02-22T17:40:03.551Z,995.36
2023-02-22T17:45:07.670Z,995.22
2023-02-22T17:50:11.839Z,995.25
2023-02-22T17:55:15.974Z,995.11
2023-02-22T18:00:20.188Z,994.93
2023-02-22T18:05:22.408Z,994.69
2023-02-22T18:10:26.607Z,994.40
2023-02-22T18:15:30.719Z,994.13
2023-02-22T18:20:34.873Z,994.03
2023-02-22T18:25:39.098Z,994.09
2023-02-22T18:30:43.273Z,994.02
2023-02-22T18:35:47.375Z,993.98
2023-02-22T18:40:51.534Z,993.89
2023-02-22T18:45:55.726Z,993.70
2023-02-22T18:50:59.852Z,993.61
2023-02-22T18:56:04.019Z,993.44
2023-02-22T19:01:08.176Z,993.43
2023-02-22T19:06:12.393Z,993.42
2023-02-22T19:11:16.505Z,993.49
2023-02-22T19:16:21.233Z,993.43
2023-02-22T19:21:24.846Z,993.43
2023-02-22T19:26:29.023Z,993.44
2023-02-22T19:31:33.146Z,993.41
2023-02-22T19:36:37.333Z,993.31
2023-02-22T19:41:41.477Z,993.20
2023-02-22T19:46:47.592Z,993.34
2023-02-22T19:51:47.924Z,993.19
2023-02-22T19:56:52.081Z,993.24
2023-02-22T20:01:56.243Z,993.18
2023-02-22T20:12:04.549Z,993.14
2023-02-22T20:17:08.734Z,993.12
2023-02-22T20:22:12.879Z,992.96
2023-02-22T20:27:17.081Z,992.71
2023-02-22T20:32:21.469Z,992.52
2023-02-22T20:37:25.363Z,992.44
2023-02-22T20:42:29.517Z,992.36
2023-02-22T20:47:33.703Z,992.16
2023-02-22T20:52:37.845Z,991.93
2023-02-22T20:57:42.024Z,991.85
2023-02-22T21:02:46.174Z,991.73
2023-02-22T21:07:50.333Z,991.69
2023-02-22T21:12:55.202Z,991.61
2023-02-22T21:17:58.694Z,991.47
2023-02-22T21:23:02.799Z,991.40
2023-02-22T21:28:06.960Z,991.23
2023-02-22T21:33:11.174Z,991.07
2023-02-22T21:38:15.432Z,990.85
2023-02-22T21:43:17.577Z,990.79
2023-02-22T21:48:21.761Z,990.77
2023-02-22T21:53:24.032Z,990.66
2023-02-22T21:58:28.187Z,990.62
2023-02-22T22:03:32.352Z,990.57
2023-02-22T22:08:36.520Z,990.51
2023-02-22T22:13:40.681Z,990.40
2023-02-22T22:18:44.813Z,990.33
2023-02-22T22:23:48.962Z,990.28
2023-02-22T22:28:53.134Z,989.97
2023-02-22T22:33:57.315Z,989.91
2023-02-22T22:39:01.541Z,989.90
2023-02-22T22:44:05.618Z,989.86
2023-02-22T22:49:09.799Z,989.73
2023-02-22T22:54:13.942Z,989.58
2023-02-22T22:59:18.092Z,989.65
2023-02-22T23:04:22.258Z,989.58
2023-02-22T23:09:26.436Z,989.46
2023-02-22T23:14:30.575Z,989.34
2023-02-22T23:19:34.813Z,989.31
2023-02-22T23:24:38.881Z,989.27
2023-02-22T23:29:43.132Z,989.22
2023-02-22T23:34:47.260Z,989.16
2023-02-22T23:39:49.512Z,989.22
2023-02-22T23:44:53.687Z,989.15
2023-02-22T23:49:55.971Z,989.13
2023-02-22T23:55:00.137Z,989.15
